Time;durP1;ratioP1;P1;durP2;ratioP2;P2;SDS_P1;SDS_P2;PMS_P1;PMS_P2;Temp;Humidity;BMP_temperature;BMP_pressure;BME280_temperature;BME280_humidity;BME280_pressure;Samples;Min_cycle;Max_cycle;Signal;HPM_P1;HPM_P2
2021/09/06 00:01:50;;;;;;;5.60;2.88;;;20.50;75.00;;;;;;4175247;28;20145;-59
2021/09/06 00:04:14;;;;;;;2.55;2.45;;;20.50;75.00;;;;;;4175059;28;20486;-57
2021/09/06 00:06:39;;;;;;;3.80;3.28;;;20.50;74.90;;;;;;4175021;28;20363;-59
2021/09/06 00:09:02;;;;;;;2.60;2.40;;;20.50;74.80;;;;;;4174722;28;20060;-60
2021/09/06 00:11:24;;;;;;;3.05;2.85;;;20.50;75.20;;;;;;4174898;28;20048;-59
2021/09/06 00:13:46;;;;;;;3.40;3.20;;;20.50;75.10;;;;;;4174598;28;20057;-60
2021/09/06 00:16:08;;;;;;;3.20;3.00;;;20.50;75.00;;;;;;4186995;28;20040;-59
2021/09/06 00:18:31;;;;;;;3.58;3.33;;;20.50;75.00;;;;;;4175502;28;20063;-60
2021/09/06 00:20:56;;;;;;;2.95;2.75;;;20.50;75.00;;;;;;4175071;28;20055;-59
2021/09/06 00:23:18;;;;;;;3.15;2.90;;;20.40;74.80;;;;;;4174728;28;20127;-58
2021/09/06 00:25:42;;;;;;;3.90;3.60;;;20.40;75.00;;;;;;4159531;28;20124;-58
2021/09/06 00:28:04;;;;;;;3.13;2.85;;;20.40;74.90;;;;;;4174648;28;20040;-58
2021/09/06 00:30:27;;;;;;;3.67;3.00;;;20.40;74.90;;;;;;4173640;28;20057;-58
2021/09/06 00:32:49;;;;;;;5.32;3.92;;;20.40;75.00;;;;;;4173486;28;20060;-59
2021/09/06 00:35:11;;;;;;;5.68;3.70;;;20.40;75.10;;;;;;4180274;28;20044;-58
2021/09/06 00:37:38;;;;;;;4.93;3.55;;;20.40;75.10;;;;;;4189498;28;20056;-60
2021/09/06 00:40:00;;;;;;;3.88;3.47;;;20.40;75.10;;;;;;4188395;28;20131;-58
2021/09/06 00:42:22;;;;;;;3.30;3.10;;;20.40;75.10;;;;;;4192230;28;20662;-59
2021/09/06 00:44:44;;;;;;;3.22;2.75;;;20.40;75.10;;;;;;4207491;28;20424;-60
2021/09/06 00:47:07;;;;;;;3.35;3.08;;;20.30;75.80;;;;;;4190973;28;20094;-59
2021/09/06 00:49:31;;;;;;;3.38;3.15;;;20.30;75.00;;;;;;4190747;28;20084;-59
2021/09/06 00:51:53;;;;;;;2.90;2.80;;;20.30;75.00;;;;;;4191152;28;20135;-59
2021/09/06 00:54:17;;;;;;;3.42;3.17;;;20.30;75.10;;;;;;4189582;28;20040;-58
2021/09/06 00:56:40;;;;;;;3.40;3.20;;;20.30;74.90;;;;;;4189603;28;20053;-59
2021/09/06 00:59:03;;;;;;;3.28;3.08;;;20.30;75.00;;;;;;4191253;28;20525;-59
2021/09/06 01:01:26;;;;;;;2.75;2.45;;;20.30;75.10;;;;;;4189322;28;20048;-59
2021/09/06 01:03:49;;;;;;;2.90;2.38;;;20.30;75.20;;;;;;4191038;28;20494;-59
2021/09/06 01:06:26;;;;;;;1.90;1.80;;;20.30;75.00;;;;;;4189213;28;20044;-58
2021/09/06 01:09:01;;;;;;;2.25;1.92;;;20.30;75.00;;;;;;4189272;28;20056;-59
2021/09/06 01:11:51;;;;;;;3.33;2.95;;;20.30;75.00;;;;;;4190677;28;20063;-59
2021/09/06 01:14:18;;;;;;;3.25;3.05;;;20.20;75.10;;;;;;4189677;28;20044;-59
2021/09/06 01:16:41;;;;;;;3.00;2.80;;;20.20;75.30;;;;;;4189572;28;20781;-58
2021/09/06 01:19:04;;;;;;;2.55;2.45;;;20.20;75.00;;;;;;4189646;28;20047;-58
2021/09/06 01:21:28;;;;;;;2.95;2.67;;;20.20;75.00;;;;;;4180038;28;20136;-59
2021/09/06 01:24:17;;;;;;;3.40;3.20;;;20.20;75.00;;;;;;4176128;28;20124;-59
2021/09/06 01:26:43;;;;;;;3.00;2.88;;;20.20;75.00;;;;;;4190557;28;20071;-59
2021/09/06 01:29:07;;;;;;;3.45;3.15;;;20.20;74.80;;;;;;4189269;28;20040;-59
2021/09/06 01:31:30;;;;;;;3.60;3.30;;;20.20;74.90;;;;;;4192697;28;20136;-59
2021/09/06 01:33:52;;;;;;;10.43;3.55;;;20.20;75.10;;;;;;4192670;28;20078;-55
2021/09/06 01:36:17;;;;;;;13.70;3.60;;;20.10;74.90;;;;;;4192283;28;20061;-59
2021/09/06 01:38:39;;;;;;;5.63;3.50;;;20.10;74.90;;;;;;4192413;28;20487;-59
2021/09/06 01:41:02;;;;;;;3.90;3.60;;;20.10;75.00;;;;;;4191863;28;20040;-59
2021/09/06 01:43:25;;;;;;;6.35;3.58;;;20.10;75.10;;;;;;4190341;28;20577;-56
2021/09/06 01:45:47;;;;;;;3.08;2.83;;;20.10;74.90;;;;;;4208648;28;20051;-59
2021/09/06 01:48:09;;;;;;;3.30;3.10;;;20.10;75.00;;;;;;4210399;28;20067;-58
2021/09/06 01:50:38;;;;;;;2.63;2.53;;;20.10;75.00;;;;;;4207564;28;20132;-58
2021/09/06 01:53:00;;;;;;;2.35;2.25;;;20.10;75.20;;;;;;4209028;28;20051;-58
2021/09/06 01:55:23;;;;;;;2.00;1.90;;;20.10;75.20;;;;;;4210377;28;20118;-59
2021/09/06 01:57:53;;;;;;;2.40;2.30;;;20.10;75.20;;;;;;4208665;28;20505;-59
2021/09/06 02:00:18;;;;;;;1.98;1.88;;;20.00;75.90;;;;;;4210347;28;20282;-58
2021/09/06 02:02:41;;;;;;;2.55;2.45;;;20.00;74.80;;;;;;4209087;28;20549;-59
2021/09/06 02:05:08;;;;;;;2.92;2.70;;;20.00;75.10;;;;;;4208827;28;20047;-59
2021/09/06 02:07:32;;;;;;;2.70;2.50;;;20.00;75.00;;;;;;4185575;28;20072;-59
2021/09/06 02:09:55;;;;;;;2.95;2.85;;;20.00;75.00;;;;;;4170295;28;20048;-60
2021/09/06 02:12:17;;;;;;;3.80;2.90;;;20.00;74.80;;;;;;4158905;28;20071;-59
2021/09/06 02:14:43;;;;;;;2.60;2.47;;;20.00;74.80;;;;;;4158417;28;20507;-60
2021/09/06 02:17:07;;;;;;;2.65;2.55;;;20.00;74.90;;;;;;4158775;28;20561;-59
2021/09/06 02:19:32;;;;;;;2.60;2.38;;;20.00;74.90;;;;;;4158370;28;20053;-60
2021/09/06 02:21:54;;;;;;;3.17;2.92;;;20.00;74.90;;;;;;4175184;28;20677;-59
2021/09/06 02:24:16;;;;;;;2.83;2.72;;;20.00;75.10;;;;;;4176525;28;20120;-59
2021/09/06 02:26:41;;;;;;;2.70;2.60;;;20.00;75.00;;;;;;4173871;28;20053;-58
2021/09/06 02:29:04;;;;;;;2.63;2.40;;;20.00;75.00;;;;;;4175044;28;20118;-62
2021/09/06 02:31:31;;;;;;;2.28;2.17;;;20.00;74.70;;;;;;4174640;28;20068;-59
2021/09/06 02:34:23;;;;;;;2.67;2.58;;;19.90;74.60;;;;;;4175093;28;20566;-59
2021/09/06 02:36:45;;;;;;;2.83;2.63;;;19.90;75.10;;;;;;4192927;28;20052;-59
2021/09/06 02:39:08;;;;;;;3.03;2.83;;;19.90;74.80;;;;;;4191614;28;20564;-59
2021/09/06 02:41:29;;;;;;;2.78;2.58;;;19.90;74.70;;;;;;4188904;28;20075;-59
2021/09/06 02:43:52;;;;;;;2.70;2.60;;;19.90;74.50;;;;;;4190724;28;20078;-59
2021/09/06 02:46:14;;;;;;;2.75;2.58;;;19.90;74.50;;;;;;4208035;28;20059;-59
2021/09/06 02:48:36;;;;;;;2.75;2.53;;;19.90;74.30;;;;;;4208069;28;20524;-60
2021/09/06 02:51:00;;;;;;;2.80;2.60;;;19.90;74.30;;;;;;4208018;28;20039;-59
2021/09/06 02:53:22;;;;;;;2.83;2.63;;;19.90;74.10;;;;;;4208864;28;20136;-57
2021/09/06 02:55:44;;;;;;;2.55;2.45;;;19.80;74.30;;;;;;4165091;28;20064;-59
2021/09/06 02:58:06;;;;;;;3.42;3.13;;;19.80;74.20;;;;;;4159542;28;20668;-59
2021/09/06 03:00:29;;;;;;;3.78;3.47;;;19.80;74.10;;;;;;4157811;28;20117;-59
2021/09/06 03:02:54;;;;;;;3.65;3.45;;;19.80;74.10;;;;;;4174240;28;20067;-60
2021/09/06 03:05:17;;;;;;;3.25;3.05;;;19.80;74.30;;;;;;4174261;28;20077;-59
2021/09/06 03:07:45;;;;;;;3.30;3.10;;;19.80;74.20;;;;;;4174095;28;20053;-59
2021/09/06 03:10:09;;;;;;;3.10;3.00;;;19.80;74.00;;;;;;4174415;28;20056;-60
2021/09/06 03:12:31;;;;;;;3.63;3.33;;;19.80;74.10;;;;;;4175814;28;20049;-59
2021/09/06 03:14:53;;;;;;;2.75;2.65;;;19.80;74.10;;;;;;4182230;28;20139;-59
2021/09/06 03:17:15;;;;;;;2.97;2.80;;;19.80;73.80;;;;;;4175735;28;20048;-59
2021/09/06 03:19:37;;;;;;;4.13;2.72;;;19.70;73.70;;;;;;4174548;28;20083;-59
2021/09/06 03:22:02;;;;;;;3.20;2.88;;;19.70;73.60;;;;;;4174395;28;20132;-59
2021/09/06 03:24:25;;;;;;;5.63;3.97;;;19.70;74.00;;;;;;4174029;28;20056;-60
2021/09/06 03:26:48;;;;;;;3.80;3.50;;;19.70;73.60;;;;;;4174079;28;20486;-59
2021/09/06 03:29:10;;;;;;;3.33;3.13;;;19.70;73.80;;;;;;4160011;28;20446;-60
2021/09/06 03:31:33;;;;;;;3.25;3.05;;;19.70;73.60;;;;;;4157584;28;20499;-59
2021/09/06 03:33:54;;;;;;;3.60;3.40;;;19.70;73.60;;;;;;4160977;28;20106;-59
2021/09/06 03:36:16;;;;;;;3.05;2.70;;;19.70;73.60;;;;;;4175144;28;20060;-60
2021/09/06 03:38:38;;;;;;;3.60;3.40;;;19.70;73.70;;;;;;4173853;28;20061;-59
2021/09/06 03:41:02;;;;;;;2.78;2.67;;;19.70;73.70;;;;;;4174071;28;20048;-59
2021/09/06 03:43:28;;;;;;;3.20;3.00;;;19.70;73.30;;;;;;4160893;28;20462;-59
2021/09/06 03:45:50;;;;;;;2.90;2.70;;;19.70;73.40;;;;;;4159216;28;20145;-59
2021/09/06 03:48:13;;;;;;;2.83;2.63;;;19.70;73.40;;;;;;4157580;28;20060;-60
2021/09/06 03:50:38;;;;;;;2.72;2.53;;;19.60;73.30;;;;;;4173913;28;20049;-59
2021/09/06 03:53:03;;;;;;;2.33;2.15;;;19.60;73.30;;;;;;4173100;28;20059;-60
2021/09/06 03:55:26;;;;;;;2.20;2.10;;;19.60;74.10;;;;;;4175110;28;20518;-59
2021/09/06 03:57:49;;;;;;;2.38;2.28;;;19.60;73.20;;;;;;4173948;28;20243;-59
2021/09/06 04:00:14;;;;;;;2.83;2.63;;;19.60;72.90;;;;;;4173593;28;20526;-60
2021/09/06 04:02:44;;;;;;;;;;;19.60;73.00;;;;;;4174178;28;20141;-60
2021/09/06 04:05:13;;;;;;;2.45;2.35;;;19.60;74.60;;;;;;4173366;28;19925;-59
2021/09/06 04:07:36;;;;;;;3.65;2.67;;;19.50;74.40;;;;;;4158479;28;20173;-60
2021/09/06 04:09:58;;;;;;;3.80;3.30;;;19.50;73.60;;;;;;4174181;28;20044;-59
2021/09/06 04:12:20;;;;;;;3.53;3.33;;;19.50;73.20;;;;;;4174904;28;20554;-59
2021/09/06 04:14:44;;;;;;;3.55;3.35;;;19.50;73.20;;;;;;4173465;28;20055;-59
2021/09/06 04:17:06;;;;;;;3.67;3.47;;;19.50;72.90;;;;;;4174711;28;20048;-59
2021/09/06 04:19:34;;;;;;;3.80;3.60;;;19.50;73.00;;;;;;4172306;28;20054;-60
2021/09/06 04:21:56;;;;;;;4.55;4.05;;;19.50;72.90;;;;;;4158280;28;20549;-60
2021/09/06 04:24:19;;;;;;;17.27;6.07;;;19.50;73.00;;;;;;4157107;28;20049;-59
2021/09/06 04:26:41;;;;;;;4.25;4.03;;;19.40;72.90;;;;;;4156845;28;20329;-59
2021/09/06 04:29:03;;;;;;;3.35;3.15;;;19.40;73.10;;;;;;4174704;28;20075;-60
2021/09/06 04:31:27;;;;;;;3.20;3.10;;;19.50;73.20;;;;;;4172833;28;20557;-59
2021/09/06 04:33:49;;;;;;;3.13;2.92;;;19.40;73.70;;;;;;4172450;28;20506;-58
2021/09/06 04:36:11;;;;;;;3.67;3.47;;;19.40;73.10;;;;;;4172636;28;20483;-60
2021/09/06 04:38:38;;;;;;;4.07;3.78;;;19.40;73.10;;;;;;4172322;28;20049;-59
2021/09/06 04:41:00;;;;;;;3.78;3.58;;;19.40;73.00;;;;;;4174711;28;20127;-59
2021/09/06 04:43:22;;;;;;;3.28;3.08;;;19.40;73.10;;;;;;4196892;28;20051;-59
2021/09/06 04:45:45;;;;;;;3.90;3.60;;;19.40;73.00;;;;;;4206368;28;20071;-59
2021/09/06 04:48:09;;;;;;;4.93;4.32;;;19.40;73.10;;;;;;4202008;28;20057;-59
2021/09/06 04:50:31;;;;;;;3.70;3.50;;;19.40;72.80;;;;;;4191107;28;20071;-59
2021/09/06 04:52:55;;;;;;;4.45;3.70;;;19.40;73.00;;;;;;4189349;28;20060;-59
2021/09/06 04:55:17;;;;;;;4.78;4.38;;;19.40;73.00;;;;;;4191176;28;20729;-59
2021/09/06 04:57:39;;;;;;;5.88;5.43;;;19.40;73.10;;;;;;4190717;28;20056;-60
2021/09/06 05:00:01;;;;;;;20.90;7.45;;;19.40;73.00;;;;;;4190939;28;20136;-59
2021/09/06 05:02:25;;;;;;;5.65;5.15;;;19.40;73.00;;;;;;4174869;28;20045;-59
2021/09/06 05:04:48;;;;;;;5.30;4.85;;;19.40;73.10;;;;;;4173290;28;20057;-58
2021/09/06 05:07:10;;;;;;;3.78;3.47;;;19.40;72.90;;;;;;4177697;28;20479;-59
2021/09/06 05:09:33;;;;;;;4.20;3.90;;;19.40;73.30;;;;;;4176148;28;20499;-59
2021/09/06 05:11:55;;;;;;;3.55;3.25;;;19.30;73.20;;;;;;4177362;28;20159;-59
2021/09/06 05:14:17;;;;;;;3.38;3.08;;;19.30;73.10;;;;;;4177601;28;20148;-59
2021/09/06 05:16:40;;;;;;;3.50;3.30;;;19.30;73.00;;;;;;4169535;28;20100;-59
2021/09/06 05:19:02;;;;;;;4.43;3.00;;;19.30;73.00;;;;;;4159597;28;20102;-58
2021/09/06 05:21:27;;;;;;;3.70;3.50;;;19.30;73.00;;;;;;4175797;28;20094;-60
2021/09/06 05:23:49;;;;;;;3.80;3.60;;;19.30;72.70;;;;;;4176032;28;20083;-58
2021/09/06 05:26:13;;;;;;;4.28;4.03;;;19.30;72.80;;;;;;4175925;28;20102;-59
2021/09/06 05:28:36;;;;;;;4.00;3.70;;;19.30;72.90;;;;;;4175944;28;20526;-59
2021/09/06 05:30:57;;;;;;;4.40;4.07;;;19.30;72.90;;;;;;4175976;28;20425;-59
2021/09/06 05:33:24;;;;;;;4.50;4.10;;;19.30;73.10;;;;;;4175956;28;20049;-60
2021/09/06 05:35:47;;;;;;;4.35;4.05;;;19.30;73.10;;;;;;4175831;28;20511;-60
2021/09/06 05:38:10;;;;;;;4.75;4.30;;;19.30;73.10;;;;;;4177324;28;20118;-59
2021/09/06 05:40:58;;;;;;;5.25;4.82;;;19.20;73.00;;;;;;4176861;28;20044;-60
2021/09/06 05:43:20;;;;;;;4.95;4.60;;;19.30;73.90;;;;;;4199142;28;20048;-60
2021/09/06 05:45:43;;;;;;;4.45;4.15;;;19.20;74.20;;;;;;4193894;28;20514;-60
2021/09/06 05:48:06;;;;;;;4.90;4.47;;;19.30;74.20;;;;;;4191972;28;20056;-59
2021/09/06 05:50:30;;;;;;;4.88;4.50;;;19.30;74.40;;;;;;4191043;28;20052;-58
2021/09/06 05:53:15;;;;;;;;;;;19.30;74.30;;;;;;4177262;28;20080;-59
2021/09/06 05:55:37;;;;;;;5.60;5.10;;;19.30;75.10;;;;;;4179534;28;19949;-59
2021/09/06 05:57:59;;;;;;;4.95;4.55;;;19.30;75.30;;;;;;4175414;28;20139;-59
2021/09/06 06:00:22;;;;;;;6.15;4.63;;;19.30;74.30;;;;;;4176735;28;20049;-60
2021/09/06 06:02:45;;;;;;;4.82;4.35;;;19.30;74.10;;;;;;4175711;28;20591;-59
2021/09/06 06:05:09;;;;;;;5.07;4.68;;;19.30;73.80;;;;;;4175541;28;20570;-59
2021/09/06 06:07:35;;;;;;;4.57;4.05;;;19.30;73.60;;;;;;4176875;28;20080;-60
2021/09/06 06:09:58;;;;;;;4.88;4.47;;;19.30;73.40;;;;;;4174983;28;20156;-60
2021/09/06 06:12:21;;;;;;;3.53;3.33;;;19.30;73.20;;;;;;4176635;28;20049;-59
2021/09/06 06:14:44;;;;;;;3.40;3.20;;;19.30;73.10;;;;;;4175429;28;20045;-59
2021/09/06 06:17:06;;;;;;;4.53;4.18;;;19.30;73.10;;;;;;4173444;28;20052;-59
2021/09/06 06:19:32;;;;;;;2.72;2.63;;;19.30;73.10;;;;;;4158341;28;20057;-60
2021/09/06 06:22:15;;;;;;;2.90;2.80;;;19.30;73.10;;;;;;4175015;28;20044;-60
2021/09/06 06:24:49;;;;;;;2.90;2.80;;;19.30;73.60;;;;;;4188537;28;20060;-60
2021/09/06 06:27:20;;;;;;;2.92;2.80;;;19.20;73.60;;;;;;4191440;28;20058;-60
2021/09/06 06:29:42;;;;;;;3.55;3.25;;;19.20;73.50;;;;;;4191553;28;20060;-59
2021/09/06 06:32:09;;;;;;;3.08;2.97;;;19.20;73.50;;;;;;4191537;28;20470;-59
2021/09/06 06:34:32;;;;;;;4.13;3.80;;;19.20;73.60;;;;;;4191056;28;20054;-59
2021/09/06 06:36:54;;;;;;;4.38;3.92;;;19.20;73.80;;;;;;4179195;28;20503;-58
2021/09/06 06:39:19;;;;;;;4.13;3.83;;;19.30;74.20;;;;;;4180352;28;20113;-61
2021/09/06 06:41:47;;;;;;;3.95;3.65;;;19.30;74.60;;;;;;4178311;28;20045;-59
2021/09/06 06:44:11;;;;;;;4.28;3.97;;;19.30;74.50;;;;;;4183653;28;20436;-60
2021/09/06 06:46:34;;;;;;;4.32;3.92;;;19.40;74.40;;;;;;4174835;28;20510;-60
2021/09/06 06:48:56;;;;;;;4.50;4.10;;;19.40;74.30;;;;;;4174068;28;20053;-60
2021/09/06 06:51:21;;;;;;;5.13;4.68;;;19.40;74.30;;;;;;4169899;28;20821;-58
2021/09/06 06:53:43;;;;;;;5.15;4.70;;;19.30;74.30;;;;;;4180469;28;20044;-59
2021/09/06 06:56:08;;;;;;;5.28;4.78;;;19.30;74.30;;;;;;4190430;28;20135;-60
2021/09/06 06:58:30;;;;;;;4.78;4.38;;;19.30;74.50;;;;;;4190027;28;20117;-59
2021/09/06 07:00:57;;;;;;;4.70;4.30;;;19.30;74.70;;;;;;4192408;28;20391;-60
2021/09/06 07:03:19;;;;;;;4.70;4.40;;;19.30;74.70;;;;;;4174265;28;20559;-59
2021/09/06 07:05:41;;;;;;;5.05;4.65;;;19.30;75.00;;;;;;4175627;28;20037;-59
2021/09/06 07:08:05;;;;;;;6.20;5.68;;;19.30;75.20;;;;;;4190830;28;20145;-59
2021/09/06 07:10:26;;;;;;;6.60;6.00;;;19.30;75.60;;;;;;4191090;28;20106;-59
2021/09/06 07:12:51;;;;;;;7.13;6.47;;;19.30;75.80;;;;;;4191105;28;20045;-59
2021/09/06 07:15:13;;;;;;;7.07;6.47;;;19.30;76.20;;;;;;4190746;28;20044;-59
2021/09/06 07:17:37;;;;;;;7.20;6.60;;;19.30;76.40;;;;;;4175217;28;20073;-60
2021/09/06 07:19:59;;;;;;;7.60;7.00;;;19.30;76.60;;;;;;4186062;28;20045;-59
2021/09/06 07:22:22;;;;;;;8.10;6.00;;;19.40;76.80;;;;;;4190195;28;20498;-59
2021/09/06 07:24:45;;;;;;;8.32;7.53;;;19.40;77.20;;;;;;4191486;28;20106;-59
2021/09/06 07:27:07;;;;;;;9.15;7.63;;;19.40;77.30;;;;;;4190220;28;20502;-59
2021/09/06 07:29:29;;;;;;;9.30;8.48;;;19.40;77.60;;;;;;4188638;28;20075;-60
2021/09/06 07:31:53;;;;;;;9.85;8.93;;;19.50;77.90;;;;;;4190274;28;20053;-59
2021/09/06 07:34:17;;;;;;;10.23;8.88;;;19.50;78.00;;;;;;4190440;28;20036;-60
2021/09/06 07:36:39;;;;;;;9.85;8.85;;;19.60;78.10;;;;;;4190641;28;20733;-59
2021/09/06 07:39:01;;;;;;;9.68;8.52;;;19.60;78.30;;;;;;4192009;28;20044;-59
2021/09/06 07:41:27;;;;;;;10.10;9.18;;;19.60;78.40;;;;;;4190521;28;20048;-59
2021/09/06 07:43:49;;;;;;;9.13;8.23;;;19.70;78.70;;;;;;4190383;28;20060;-59
2021/09/06 07:46:11;;;;;;;9.30;8.05;;;19.70;79.40;;;;;;4190174;28;20052;-59
2021/09/06 07:48:33;;;;;;;10.30;9.15;;;19.70;78.40;;;;;;4185446;28;20553;-59
2021/09/06 07:50:56;;;;;;;9.88;8.20;;;19.70;78.70;;;;;;4190083;28;20053;-59
2021/09/06 07:53:19;;;;;;;9.85;8.85;;;19.70;79.20;;;;;;4190095;28;20068;-59
2021/09/06 07:55:41;;;;;;;8.88;8.00;;;19.70;79.50;;;;;;4181296;28;20623;-59
2021/09/06 07:58:03;;;;;;;11.52;8.88;;;19.70;79.60;;;;;;4186349;28;20048;-59
2021/09/06 08:00:26;;;;;;;10.35;8.02;;;19.70;79.60;;;;;;4187799;28;20126;-59
2021/09/06 08:02:49;;;;;;;10.30;9.30;;;19.70;79.50;;;;;;4164051;28;20415;-59
2021/09/06 08:05:19;;;;;;;10.48;9.02;;;19.70;79.50;;;;;;4168318;28;20048;-60
2021/09/06 08:07:45;;;;;;;11.77;9.77;;;19.70;79.60;;;;;;4172857;28;20055;-60
2021/09/06 08:10:08;;;;;;;12.32;10.07;;;19.70;79.80;;;;;;4173273;28;20041;-60
2021/09/06 08:12:30;;;;;;;11.02;9.55;;;19.80;80.10;;;;;;4173577;28;20048;-60
2021/09/06 08:14:53;;;;;;;10.13;9.13;;;19.80;80.10;;;;;;4173419;28;20049;-59
2021/09/06 08:17:15;;;;;;;10.85;9.85;;;19.80;80.20;;;;;;4174828;28;20123;-59
2021/09/06 08:19:37;;;;;;;10.90;9.07;;;19.80;80.20;;;;;;4173373;28;20055;-60
2021/09/06 08:22:01;;;;;;;10.00;8.68;;;19.90;80.20;;;;;;4174651;28;20124;-60
2021/09/06 08:24:25;;;;;;;10.65;9.40;;;19.90;80.00;;;;;;4172821;28;20055;-60
2021/09/06 08:26:47;;;;;;;10.75;9.65;;;19.90;80.10;;;;;;4172912;28;20088;-60
2021/09/06 08:29:09;;;;;;;11.55;10.07;;;19.90;80.00;;;;;;4162626;28;20058;-59
2021/09/06 08:31:31;;;;;;;10.52;9.43;;;19.90;80.00;;;;;;4161881;28;20443;-59
2021/09/06 08:33:54;;;;;;;10.77;9.43;;;19.90;80.20;;;;;;4174450;28;20410;-59
2021/09/06 08:36:16;;;;;;;11.32;8.52;;;20.00;80.30;;;;;;4173100;28;20131;-59
2021/09/06 08:38:39;;;;;;;8.55;7.65;;;20.00;80.20;;;;;;4172493;28;20056;-59
2021/09/06 08:41:06;;;;;;;9.98;8.98;;;20.00;80.00;;;;;;4173208;28;20048;-59
2021/09/06 08:43:29;;;;;;;11.95;9.02;;;20.10;79.90;;;;;;4173181;28;20098;-59
2021/09/06 08:45:52;;;;;;;9.52;8.57;;;20.10;79.40;;;;;;4173109;28;20049;-60
2021/09/06 08:48:14;;;;;;;10.60;9.07;;;20.10;79.10;;;;;;4174020;28;20052;-60
2021/09/06 08:50:37;;;;;;;9.45;8.50;;;20.20;79.30;;;;;;4172854;28;20061;-59
2021/09/06 08:53:00;;;;;;;9.05;8.00;;;20.20;79.20;;;;;;4173075;28;20044;-59
2021/09/06 08:55:22;;;;;;;10.93;9.10;;;20.20;78.80;;;;;;4172669;28;20052;-59
2021/09/06 08:57:47;;;;;;;11.02;8.88;;;20.20;78.70;;;;;;4173053;28;20060;-59
2021/09/06 09:00:11;;;;;;;11.95;8.13;;;20.20;78.60;;;;;;4174242;28;20499;-60
2021/09/06 09:02:56;;;;;;;9.45;8.55;;;20.20;78.60;;;;;;4172719;28;20053;-60
2021/09/06 09:06:00;;;;;;;12.02;9.60;;;20.20;78.40;;;;;;4172501;28;20041;-60
2021/09/06 09:09:01;;;;;;;13.05;9.25;;;20.30;78.60;;;;;;4165836;28;20049;-60
2021/09/06 09:12:06;;;;;;;10.35;9.30;;;20.30;78.60;;;;;;4172631;28;20152;-59
2021/09/06 09:14:59;;;;;;;11.75;8.52;;;20.30;79.20;;;;;;4161652;28;20262;-59
2021/09/06 09:17:36;;;;;;;10.90;8.30;;;20.30;79.00;;;;;;4162451;28;20582;-59
2021/09/06 09:20:08;;;;;;;9.57;8.15;;;20.30;78.50;;;;;;4169049;28;20056;-59
2021/09/06 09:22:49;;;;;;;9.43;7.95;;;20.30;78.60;;;;;;4174152;28;20053;-60
2021/09/06 09:25:40;;;;;;;10.43;9.25;;;20.40;79.00;;;;;;4168643;28;20495;-61
2021/09/06 09:28:29;;;;;;;9.30;8.40;;;20.50;79.20;;;;;;4174208;28;20056;-59
2021/09/06 09:31:11;;;;;;;8.73;7.93;;;20.50;79.00;;;;;;4187638;28;20110;-61
2021/09/06 09:33:49;;;;;;;10.07;7.88;;;20.50;78.70;;;;;;4182083;28;20044;-61
2021/09/06 09:36:32;;;;;;;9.00;7.18;;;20.60;78.40;;;;;;4178224;28;20059;-61
2021/09/06 09:39:05;;;;;;;9.18;7.03;;;20.60;78.00;;;;;;4190072;28;20048;-61
2021/09/06 09:41:28;;;;;;;7.13;6.43;;;20.70;77.80;;;;;;4188783;28;20123;-61
2021/09/06 09:43:50;;;;;;;7.25;6.53;;;20.70;77.00;;;;;;4190329;28;20057;-61
2021/09/06 09:46:29;;;;;;;9.20;6.18;;;20.70;76.60;;;;;;4173322;28;20540;-61
2021/09/06 09:48:56;;;;;;;6.03;5.40;;;20.80;76.30;;;;;;4172454;28;20443;-62
2021/09/06 09:51:20;;;;;;;7.63;5.93;;;20.80;76.10;;;;;;4175264;28;20422;-61
2021/09/06 09:53:43;;;;;;;6.43;5.70;;;20.80;75.20;;;;;;4177088;28;20071;-61
2021/09/06 09:56:06;;;;;;;9.48;5.90;;;20.90;75.60;;;;;;4193759;28;20080;-61
2021/09/06 09:58:29;;;;;;;5.80;5.30;;;20.90;75.60;;;;;;4193496;28;20550;-61
2021/09/06 10:00:51;;;;;;;5.85;5.25;;;20.90;75.50;;;;;;4193433;28;20059;-61
2021/09/06 10:03:18;;;;;;;5.45;4.80;;;20.90;75.10;;;;;;4193487;28;20528;-61
2021/09/06 10:05:42;;;;;;;7.32;5.43;;;21.00;74.60;;;;;;4192602;28;20059;-61
2021/09/06 10:08:10;;;;;;;4.60;4.05;;;21.10;74.60;;;;;;4193150;28;20048;-61
2021/09/06 10:10:37;;;;;;;5.05;4.55;;;21.10;73.80;;;;;;4192881;28;20047;-61
2021/09/06 10:13:04;;;;;;;5.25;4.60;;;21.10;72.10;;;;;;4192774;28;20596;-61
2021/09/06 10:15:28;;;;;;;4.97;4.38;;;21.20;72.80;;;;;;4191099;28;20143;-61
2021/09/06 10:17:52;;;;;;;5.57;5.03;;;21.20;72.50;;;;;;4193068;28;20060;-61
2021/09/06 10:20:22;;;;;;;4.78;4.38;;;21.30;71.60;;;;;;4193343;28;20052;-60
2021/09/06 10:22:47;;;;;;;2.72;2.53;;;21.30;72.10;;;;;;4192679;28;20052;-59
2021/09/06 10:25:13;;;;;;;3.70;3.13;;;21.40;70.10;;;;;;4192051;28;20586;-60
2021/09/06 10:27:38;;;;;;;2.95;2.75;;;21.40;67.20;;;;;;4192888;28;20056;-60
2021/09/06 10:30:07;;;;;;;3.65;3.35;;;21.40;67.70;;;;;;4193176;28;20052;-60
2021/09/06 10:32:39;;;;;;;4.10;3.75;;;21.50;67.60;;;;;;4192470;28;20041;-60
2021/09/06 10:35:05;;;;;;;4.05;3.75;;;21.50;66.80;;;;;;4192444;28;20488;-60
2021/09/06 10:37:34;;;;;;;5.70;4.50;;;21.60;69.20;;;;;;4192825;28;20477;-60
2021/09/06 10:40:10;;;;;;;3.78;3.47;;;21.60;69.90;;;;;;4182119;28;20059;-61
2021/09/06 10:42:34;;;;;;;5.70;4.63;;;21.60;69.90;;;;;;4188923;28;20048;-63
2021/09/06 10:44:58;;;;;;;7.22;4.70;;;21.60;68.90;;;;;;4192702;28;20506;-60
2021/09/06 10:47:24;;;;;;;4.57;3.97;;;21.60;69.10;;;;;;4193345;28;20135;-59
2021/09/06 10:49:47;;;;;;;4.82;4.43;;;21.70;69.70;;;;;;4192279;28;20147;-60
2021/09/06 10:52:10;;;;;;;3.97;3.67;;;21.70;69.50;;;;;;4191353;28;20514;-60
2021/09/06 10:54:35;;;;;;;5.00;4.50;;;21.70;69.70;;;;;;4176035;28;20380;-60
2021/09/06 10:57:01;;;;;;;3.85;3.47;;;21.70;68.70;;;;;;4176286;28;20415;-60
2021/09/06 10:59:25;;;;;;;3.60;3.40;;;21.70;69.40;;;;;;4183426;28;20071;-60
2021/09/06 11:01:52;;;;;;;4.40;4.00;;;21.80;68.80;;;;;;4192012;28;20422;-60
2021/09/06 11:04:15;;;;;;;6.20;4.57;;;21.80;65.40;;;;;;4191216;28;20073;-60
2021/09/06 11:06:37;;;;;;;5.03;3.88;;;21.80;65.70;;;;;;4175963;28;20056;-60
2021/09/06 11:09:01;;;;;;;4.25;3.63;;;21.80;64.60;;;;;;4176245;28;20040;-59
2021/09/06 11:11:31;;;;;;;3.90;3.60;;;21.90;66.50;;;;;;4192459;28;20067;-60
2021/09/06 11:13:55;;;;;;;3.83;3.53;;;21.90;65.60;;;;;;4175587;28;20055;-61
2021/09/06 11:16:21;;;;;;;4.35;3.33;;;21.90;66.10;;;;;;4173562;28;20483;-60
2021/09/06 11:18:45;;;;;;;4.22;3.20;;;21.90;66.50;;;;;;4175374;28;20144;-60
2021/09/06 11:21:08;;;;;;;4.20;3.20;;;21.90;67.00;;;;;;4175348;28;20543;-60
2021/09/06 11:23:33;;;;;;;3.55;3.25;;;21.90;66.50;;;;;;4175435;28;20045;-60
2021/09/06 11:25:56;;;;;;;3.60;3.30;;;21.90;66.10;;;;;;4175489;28;20052;-60
2021/09/06 11:28:20;;;;;;;5.20;3.40;;;21.90;65.30;;;;;;4176194;28;20053;-60
2021/09/06 11:30:45;;;;;;;3.75;3.45;;;21.80;65.20;;;;;;4175792;28;20045;-60
2021/09/06 11:33:09;;;;;;;3.40;3.10;;;21.80;65.20;;;;;;4189493;28;20048;-60
2021/09/06 11:35:32;;;;;;;4.68;4.13;;;21.90;65.20;;;;;;4171162;28;20083;-60
2021/09/06 11:37:54;;;;;;;4.10;3.80;;;21.80;64.90;;;;;;4166684;28;20085;-59
2021/09/06 11:40:17;;;;;;;5.15;3.33;;;21.80;65.10;;;;;;4177001;28;20051;-60
2021/09/06 11:42:40;;;;;;;4.57;4.10;;;21.90;65.90;;;;;;4190538;28;20575;-60
2021/09/06 11:45:05;;;;;;;4.15;3.72;;;21.90;65.70;;;;;;4191584;28;20547;-60
2021/09/06 11:47:29;;;;;;;5.18;4.70;;;21.90;65.30;;;;;;4191440;28;20060;-61
2021/09/06 11:49:55;;;;;;;5.07;4.22;;;21.90;66.50;;;;;;4191718;28;20048;-59
2021/09/06 11:52:18;;;;;;;4.95;4.55;;;22.00;67.10;;;;;;4191815;28;20162;-60
2021/09/06 11:54:44;;;;;;;6.97;4.80;;;22.00;67.20;;;;;;4191951;28;20490;-60
2021/09/06 11:57:07;;;;;;;6.45;4.45;;;22.00;67.20;;;;;;4191719;28;20497;-60
2021/09/06 11:59:30;;;;;;;4.93;4.47;;;22.00;66.80;;;;;;4182082;28;20080;-59
2021/09/06 12:01:53;;;;;;;4.47;4.07;;;22.00;66.80;;;;;;4186868;28;20048;-60
2021/09/06 12:04:15;;;;;;;6.97;4.65;;;22.10;66.90;;;;;;4179605;28;20045;-60
2021/09/06 12:06:39;;;;;;;5.32;4.18;;;22.10;67.00;;;;;;4191152;28;20084;-60
2021/09/06 12:09:02;;;;;;;4.50;4.10;;;22.10;67.50;;;;;;4191218;28;20044;-60
2021/09/06 12:11:43;;;;;;;4.75;4.35;;;22.10;66.50;;;;;;4191332;28;20135;-60
2021/09/06 12:14:07;;;;;;;4.97;4.50;;;22.20;66.50;;;;;;4190985;28;20502;-60
2021/09/06 12:16:32;;;;;;;4.30;4.00;;;22.20;66.80;;;;;;4191041;28;20770;-60
2021/09/06 12:18:57;;;;;;;4.10;3.70;;;22.20;66.80;;;;;;4190948;28;20056;-60
2021/09/06 12:21:21;;;;;;;4.75;4.35;;;22.20;67.00;;;;;;4191612;28;20112;-59
2021/09/06 12:23:45;;;;;;;5.20;4.22;;;22.20;67.00;;;;;;4189873;28;20143;-60
2021/09/06 12:26:09;;;;;;;4.80;4.25;;;22.20;66.50;;;;;;4190664;28;20135;-60
2021/09/06 12:28:32;;;;;;;5.82;4.20;;;22.30;66.20;;;;;;4191314;28;20133;-60
2021/09/06 12:30:59;;;;;;;4.93;4.53;;;22.30;65.30;;;;;;4191022;28;20045;-60
2021/09/06 12:33:22;;;;;;;4.47;4.00;;;22.30;66.00;;;;;;4174062;28;20046;-60
2021/09/06 12:35:45;;;;;;;5.10;4.05;;;22.30;66.60;;;;;;4189755;28;20052;-60